Terminal Aerodrome Forecast
Issued by NWS Twin Cities, MN

Home | Current Version | Previous Version | Graphics & Text | Print | Product List | Glossary On
Versions: 1 2 3 4 5 6 7 8 9 10 11 12 13 14
000
FTUS43 KMPX 241700
TAFSTC
TAF
KSTC 241737Z 2418/2518 17012KT P6SM BKN025 BKN150
     FM242000 18012G18KT P6SM SCT035 BKN150
     FM242200 19010KT P6SM -SHRA SCT035 BKN100
      TEMPO 2422/2501 4SM TSRA SCT015 OVC030CB
     FM250100 22007KT P6SM SCT050 BKN100
     FM250600 23003KT P6SM SKC
     FM251400 26012KT P6SM SKC=

USA.gov is the U.S. government's official web portal to all federal, state and local government web resources and services.